Millersville, Ohio
Current Conditions -  °F | °C
As of 4:26 PM on Saturday 22 Nov 2014 (Local Time) from KTDZ Reporting Station
Overcast Overcast  
Wind Chill: 44°   Ceiling: 3300
Heat Index: 49°   Visibility: 10mi
Dew Point: 41°   Wind: 13mph
Humidity: 74%   Direction: 220°SW
Pressure: 30"   Gusts: NA
Location:  41.324°N, 83.3168°W
Report Text: KTDZ 222126Z AUTO 22011KT 10SM OVC033 09/05 A3000 RMK AO2 RAB09E18 P0000 T00940050 TSNO
Loading
Personal Weather Stations






























Interactive Weather Map New forecast layout! Learn more

10-Day Weather Forecast

Advertisements
Track Severe Weather on mobile